createdAt,value
2023-08-29T00:00:00.143Z,10.9
2023-08-29T00:05:00.299Z,10.3
2023-08-29T00:10:00.145Z,9.3
2023-08-29T00:15:00.200Z,10.1
2023-08-29T00:20:00.127Z,10.4
2023-08-29T00:25:00.138Z,10.6
2023-08-29T00:30:00.164Z,12.1
2023-08-29T00:35:00.154Z,11.1
2023-08-29T00:40:00.188Z,10.3
2023-08-29T00:45:00.149Z,10.6
2023-08-29T00:50:00.140Z,14.5
2023-08-29T01:00:00.157Z,14.2
2023-08-29T01:05:00.163Z,13.2
2023-08-29T01:10:00.145Z,13.6
2023-08-29T01:15:00.118Z,14.2
2023-08-29T01:20:00.173Z,12
2023-08-29T01:25:00.119Z,13.5
2023-08-29T01:30:00.146Z,13.2
2023-08-29T01:35:00.141Z,11.7
2023-08-29T01:40:00.158Z,13.8
2023-08-29T01:45:00.193Z,12.4
2023-08-29T01:50:00.144Z,14.2
2023-08-29T01:55:00.136Z,13.5
2023-08-29T02:00:00.163Z,14
2023-08-29T02:05:00.135Z,16.6
2023-08-29T02:10:00.154Z,18.8
2023-08-29T02:15:00.164Z,14.6
2023-08-29T02:20:00.194Z,17.5
2023-08-29T02:25:00.159Z,13.9
2023-08-29T02:30:00.218Z,16.7
2023-08-29T02:35:00.118Z,15.2
2023-08-29T02:40:00.166Z,16.9
2023-08-29T02:45:00.158Z,15.4
2023-08-29T02:50:00.145Z,15.8
2023-08-29T02:55:00.139Z,14.2
2023-08-29T03:00:00.174Z,13.4
2023-08-29T03:05:00.160Z,14.8
2023-08-29T03:10:00.128Z,13.1
2023-08-29T03:15:00.115Z,15.5
2023-08-29T03:20:00.180Z,12.8
2023-08-29T03:25:00.167Z,11.3
2023-08-29T03:30:00.185Z,12.9
2023-08-29T03:35:00.132Z,13.8
2023-08-29T03:40:00.156Z,12.8
2023-08-29T03:45:00.115Z,14
2023-08-29T03:50:00.133Z,9.6
2023-08-29T03:55:00.098Z,12.1
2023-08-29T04:00:00.166Z,12.4
2023-08-29T04:05:00.311Z,10.6
2023-08-29T04:10:00.139Z,10.1
2023-08-29T04:15:00.147Z,11.4
2023-08-29T04:20:00.230Z,11
2023-08-29T04:25:00.133Z,12
2023-08-29T04:30:00.119Z,11.2
2023-08-29T04:35:00.153Z,9
2023-08-29T04:40:00.144Z,11.1
2023-08-29T04:45:00.142Z,10.1
2023-08-29T04:50:00.250Z,9.4
2023-08-29T04:55:00.138Z,9.8
2023-08-29T05:00:00.158Z,10.1
2023-08-29T05:05:00.133Z,10.4
2023-08-29T05:10:00.149Z,9.1
2023-08-29T05:15:00.133Z,10.3
2023-08-29T05:20:00.138Z,8
2023-08-29T05:25:00.168Z,9.4
2023-08-29T05:30:00.146Z,8.6
2023-08-29T05:35:00.109Z,9.6
2023-08-29T05:40:00.157Z,9.1
2023-08-29T05:45:00.140Z,12.8
2023-08-29T05:50:00.135Z,12.8
2023-08-29T05:55:00.109Z,9.3
2023-08-29T06:00:00.211Z,9.2
2023-08-29T06:05:00.252Z,11.5
2023-08-29T06:10:00.174Z,11.2
2023-08-29T06:15:00.135Z,10.8
2023-08-29T06:20:00.204Z,11.5
2023-08-29T06:25:00.134Z,10
2023-08-29T06:30:00.122Z,11.6
2023-08-29T06:35:00.144Z,11.8
2023-08-29T06:40:00.180Z,11.1
2023-08-29T06:45:00.124Z,9.6
2023-08-29T06:50:00.138Z,10.9
2023-08-29T06:55:00.111Z,9.5
2023-08-29T07:00:00.130Z,8.8
2023-08-29T07:05:00.131Z,7.2
2023-08-29T07:10:00.191Z,10.7
2023-08-29T07:15:00.122Z,9.3
2023-08-29T07:20:00.171Z,9.2
2023-08-29T07:25:00.130Z,10.5
2023-08-29T07:30:00.114Z,8.9
2023-08-29T07:35:00.141Z,9.2
2023-08-29T07:40:00.146Z,9
2023-08-29T07:45:00.123Z,10.3
2023-08-29T07:50:00.135Z,8.2
2023-08-29T07:55:00.111Z,11.4
2023-08-29T08:00:00.270Z,10
2023-08-29T08:05:00.114Z,13
2023-08-29T08:10:00.110Z,10.9
2023-08-29T08:15:00.119Z,12.4
2023-08-29T08:20:00.151Z,13.2
2023-08-29T08:25:00.123Z,13.2
2023-08-29T08:30:00.177Z,12.8
2023-08-29T08:35:00.130Z,12.9
2023-08-29T08:40:00.123Z,13.4
2023-08-29T08:45:00.136Z,15.2
2023-08-29T08:50:00.164Z,14.6
2023-08-29T08:55:00.126Z,14.6
2023-08-29T09:00:00.150Z,14.6
2023-08-29T09:05:00.131Z,12.2
2023-08-29T09:10:00.174Z,12.5
2023-08-29T09:15:00.175Z,15.4
2023-08-29T09:20:00.124Z,15.4
2023-08-29T09:25:00.120Z,14.6
2023-08-29T09:30:00.146Z,17.1
2023-08-29T09:35:00.157Z,16.1
2023-08-29T09:40:00.157Z,13.6
2023-08-29T09:45:00.136Z,13.3
2023-08-29T09:50:00.126Z,15.4
2023-08-29T09:55:00.133Z,13.9
2023-08-29T10:00:00.124Z,13
2023-08-29T10:05:00.125Z,12.6
2023-08-29T10:10:00.137Z,16.5
2023-08-29T10:15:00.125Z,15.2
2023-08-29T10:20:00.154Z,14.6
2023-08-29T10:25:00.115Z,13
2023-08-29T10:30:00.154Z,14.8
2023-08-29T10:35:00.145Z,15.2
2023-08-29T10:40:00.164Z,14.3
2023-08-29T10:45:00.133Z,17.6
2023-08-29T10:50:00.169Z,12.4
2023-08-29T10:55:00.121Z,13.8
2023-08-29T11:00:00.160Z,13.8
2023-08-29T11:05:00.225Z,12.7
2023-08-29T11:10:00.147Z,14.1
2023-08-29T11:15:00.128Z,14.8
2023-08-29T11:20:00.162Z,17.5
2023-08-29T11:25:00.129Z,16.6
2023-08-29T11:30:16.503Z,17.1
2023-08-29T11:35:00.203Z,17.6
2023-08-29T11:40:00.162Z,15
2023-08-29T11:45:37.670Z,12.3
2023-08-29T11:50:00.181Z,14.6
2023-08-29T11:55:00.115Z,11.7
2023-08-29T12:00:00.195Z,13.2
2023-08-29T12:05:00.134Z,13.2
2023-08-29T12:10:00.124Z,11.4
2023-08-29T12:15:00.117Z,12.7
2023-08-29T12:20:00.157Z,11
2023-08-29T12:25:00.140Z,10.9
2023-08-29T12:30:00.123Z,8.2
2023-08-29T12:35:00.126Z,13
2023-08-29T12:40:00.141Z,15.2
2023-08-29T12:45:00.102Z,18.9
2023-08-29T12:50:00.165Z,16.6
2023-08-29T12:55:00.146Z,13.9
2023-08-29T13:00:00.153Z,13.8
2023-08-29T13:05:00.126Z,12.9
2023-08-29T13:10:00.131Z,15.2
2023-08-29T13:15:00.171Z,12.3
2023-08-29T13:20:00.137Z,10.8
2023-08-29T13:25:00.161Z,11.9
2023-08-29T13:30:00.155Z,14.1
2023-08-29T13:35:00.143Z,12.3
2023-08-29T13:40:00.158Z,12.3
2023-08-29T13:45:00.116Z,12.4
2023-08-29T13:50:00.171Z,9.5
2023-08-29T13:55:00.134Z,13.1
2023-08-29T14:00:00.116Z,10
2023-08-29T14:05:00.111Z,11.3
2023-08-29T14:10:00.177Z,12.7
2023-08-29T14:15:00.206Z,10.4
2023-08-29T14:20:00.152Z,13.8
2023-08-29T14:25:00.135Z,16.1
2023-08-29T14:30:00.179Z,12.4
2023-08-29T14:35:00.110Z,13.8
2023-08-29T14:40:00.153Z,13.4
2023-08-29T14:45:00.156Z,14.1
2023-08-29T14:50:00.160Z,14.6
2023-08-29T14:55:00.127Z,14
2023-08-29T15:00:00.129Z,15.6
2023-08-29T15:05:00.118Z,16
2023-08-29T15:10:00.129Z,14.2
2023-08-29T15:15:00.131Z,17.7
2023-08-29T15:20:00.139Z,17.7
2023-08-29T15:25:00.147Z,12.8
2023-08-29T15:30:00.116Z,14.2
2023-08-29T15:35:00.105Z,13.9
2023-08-29T15:40:00.156Z,11.5
2023-08-29T15:45:00.140Z,12.1
2023-08-29T15:50:00.129Z,13.3
2023-08-29T15:55:00.141Z,15
2023-08-29T16:00:00.172Z,13.4
2023-08-29T16:05:00.126Z,12
2023-08-29T16:10:00.122Z,12.7
2023-08-29T16:15:00.132Z,11
2023-08-29T16:20:00.181Z,11.9
2023-08-29T16:25:00.177Z,11.4
2023-08-29T16:30:00.149Z,12.2
2023-08-29T16:35:00.117Z,11.2
2023-08-29T16:40:00.183Z,13.1
2023-08-29T16:45:00.146Z,12.1
2023-08-29T16:50:00.143Z,17.1
2023-08-29T16:55:00.150Z,14.6
2023-08-29T17:00:00.165Z,11.1
2023-08-29T17:05:00.133Z,11.8
2023-08-29T17:10:00.125Z,11.9
2023-08-29T17:15:00.133Z,14
2023-08-29T17:20:00.180Z,12.9
2023-08-29T17:25:00.110Z,14.2
2023-08-29T17:30:00.184Z,17
2023-08-29T17:35:00.122Z,18.5
2023-08-29T17:40:00.187Z,16.9
2023-08-29T17:45:00.130Z,18.1
2023-08-29T17:50:00.221Z,14
2023-08-29T17:55:00.161Z,12.8
2023-08-29T18:00:00.133Z,15.4
2023-08-29T18:05:00.138Z,13.9
2023-08-29T18:10:00.132Z,17.6
2023-08-29T18:15:00.176Z,15.7
2023-08-29T18:20:00.201Z,16.8
2023-08-29T18:25:00.160Z,13.7
2023-08-29T18:30:00.132Z,13.7
2023-08-29T18:35:00.137Z,11
2023-08-29T18:40:00.238Z,10.2
2023-08-29T18:45:00.101Z,8.5
2023-08-29T18:50:00.132Z,9.3
2023-08-29T18:55:00.117Z,6.1
2023-08-29T19:00:00.146Z,6.2
2023-08-29T19:05:00.131Z,8.2
2023-08-29T19:10:00.118Z,7.1
2023-08-29T19:15:00.125Z,6.7
2023-08-29T19:20:00.135Z,6.2
2023-08-29T19:25:00.163Z,5.6
2023-08-29T19:30:00.232Z,0
2023-08-29T19:35:00.136Z,6.9
2023-08-29T19:40:00.122Z,6.9
2023-08-29T19:45:00.129Z,5.2
2023-08-29T19:50:00.238Z,5.8
2023-08-29T19:55:00.132Z,7
2023-08-29T20:00:00.158Z,5.4
2023-08-29T20:05:00.141Z,4.1
2023-08-29T20:10:00.152Z,5.3
2023-08-29T20:15:00.171Z,4.7
2023-08-29T20:20:00.183Z,4
2023-08-29T20:25:00.147Z,0
2023-08-29T20:30:00.130Z,5.6
2023-08-29T20:35:00.134Z,5.2
2023-08-29T20:40:00.162Z,10
2023-08-29T20:45:00.163Z,9
2023-08-29T20:50:00.137Z,6.1
2023-08-29T20:55:00.162Z,5.6
2023-08-29T21:00:00.146Z,4
2023-08-29T21:05:00.176Z,4.8
2023-08-29T21:10:00.128Z,6.1
2023-08-29T21:15:00.157Z,6.9
2023-08-29T21:20:00.185Z,9.1
2023-08-29T21:25:00.143Z,9.7
2023-08-29T21:30:00.133Z,9.1
2023-08-29T21:35:00.145Z,8.2
2023-08-29T21:40:00.150Z,9.7
2023-08-29T21:45:00.129Z,8.1
2023-08-29T21:50:00.127Z,7.6
2023-08-29T21:55:00.145Z,6.4
2023-08-29T22:00:00.275Z,4
2023-08-29T22:05:00.140Z,5.4
2023-08-29T22:10:00.162Z,5
2023-08-29T22:15:00.142Z,6.1
2023-08-29T22:20:00.176Z,6.1
2023-08-29T22:25:00.145Z,8.1
2023-08-29T22:30:00.121Z,7
2023-08-29T22:35:00.147Z,5.4
2023-08-29T22:40:00.202Z,5.8
2023-08-29T22:45:00.149Z,6.4
2023-08-29T22:50:00.127Z,7.8
2023-08-29T22:55:00.136Z,8.2
2023-08-29T23:00:00.216Z,8.5
2023-08-29T23:05:00.131Z,9
2023-08-29T23:10:00.163Z,8.4
2023-08-29T23:15:00.130Z,7
2023-08-29T23:20:00.142Z,6.1
2023-08-29T23:25:00.166Z,5.6
2023-08-29T23:30:00.144Z,6.8
2023-08-29T23:35:00.139Z,7.4
2023-08-29T23:40:00.137Z,8
2023-08-29T23:45:00.179Z,8.2
2023-08-29T23:50:00.226Z,8.8
2023-08-29T23:55:00.120Z,9.3
